Time;durP1;ratioP1;P1;durP2;ratioP2;P2;SDS_P1;SDS_P2;PMS_P1;PMS_P2;Temp;Humidity;BMP_temperature;BMP_pressure;BME280_temperature;BME280_humidity;BME280_pressure;Samples;Min_cycle;Max_cycle;Signal;HPM_P1;HPM_P2
2022/04/24 00:00:23;;;;;;;47.10;29.52;;;;;;;10.43;100.00;94448.44;5101622;27;20295;-56
2022/04/24 00:02:51;;;;;;;47.97;29.58;;;;;;;10.39;100.00;94447.16;5102432;27;20094;-58
2022/04/24 00:05:20;;;;;;;46.38;29.15;;;;;;;10.34;100.00;94436.41;5099970;28;22158;-59
2022/04/24 00:07:48;;;;;;;45.92;28.38;;;;;;;10.31;100.00;94426.25;5120782;27;20078;-58
2022/04/24 00:10:18;;;;;;;51.47;36.28;;;;;;;10.18;100.00;94427.75;5124492;27;20062;-55
2022/04/24 00:12:46;;;;;;;51.03;31.75;;;;;;;10.50;100.00;94422.94;5125259;27;20059;-57
2022/04/24 00:15:15;;;;;;;50.42;33.70;;;;;;;10.37;100.00;94412.31;5123140;27;20067;-59
2022/04/24 00:17:44;;;;;;;53.10;32.75;;;;;;;10.51;100.00;94411.38;5119424;27;20062;-59
2022/04/24 00:20:13;;;;;;;50.22;32.17;;;;;;;10.58;100.00;94420.13;5123643;27;20059;-56
2022/04/24 00:22:41;;;;;;;48.38;33.95;;;;;;;10.31;100.00;94416.53;5120173;27;20066;-59
2022/04/24 00:25:09;;;;;;;55.15;33.92;;;;;;;10.36;100.00;94416.78;5122575;27;20070;-57
2022/04/24 00:27:39;;;;;;;51.50;32.67;;;;;;;10.48;100.00;94410.97;5123551;27;20082;-59
2022/04/24 00:30:09;;;;;;;44.10;26.35;;;;;;;10.22;100.00;94402.69;5120835;27;20066;-58
2022/04/24 00:32:37;;;;;;;53.92;34.13;;;;;;;10.26;100.00;94402.34;5121516;27;20074;-55
2022/04/24 00:35:06;;;;;;;54.58;33.50;;;;;;;10.31;100.00;94403.34;5120015;27;20063;-58
2022/04/24 00:37:34;;;;;;;47.10;29.67;;;;;;;10.31;100.00;94394.66;5119241;27;20555;-57
2022/04/24 00:40:03;;;;;;;55.13;34.33;;;;;;;10.35;100.00;94398.50;5121422;27;20063;-57
2022/04/24 00:42:32;;;;;;;52.15;33.83;;;;;;;10.18;100.00;94396.16;5119674;27;20492;-58
2022/04/24 00:45:01;;;;;;;55.30;37.75;;;;;;;10.22;100.00;94388.69;5124561;27;20090;-57
2022/04/24 00:47:30;;;;;;;54.42;33.22;;;;;;;10.16;100.00;94392.91;5123259;27;20536;-55
2022/04/24 00:49:59;;;;;;;59.55;42.30;;;;;;;10.17;100.00;94399.00;5119636;27;20092;-56
2022/04/24 00:52:27;;;;;;;52.30;32.47;;;;;;;10.21;100.00;94405.50;5122274;27;20406;-54
2022/04/24 00:54:56;;;;;;;52.22;32.97;;;;;;;10.19;100.00;94397.78;5121693;27;20059;-56
2022/04/24 00:57:24;;;;;;;49.28;31.63;;;;;;;10.35;100.00;94388.78;5120761;27;20104;-58
2022/04/24 00:59:52;;;;;;;55.00;35.17;;;;;;;10.14;100.00;94389.66;5116122;27;20063;-58
2022/04/24 01:02:22;;;;;;;52.67;31.85;;;;;;;10.35;100.00;94399.31;5119392;27;20086;-55
2022/04/24 01:04:50;;;;;;;56.22;33.90;;;;;;;10.30;100.00;94385.13;5120332;27;20681;-58
2022/04/24 01:07:19;;;;;;;55.20;34.15;;;;;;;10.21;100.00;94379.16;5122146;27;20062;-58
2022/04/24 01:09:47;;;;;;;49.47;31.88;;;;;;;10.14;100.00;94378.31;5124053;27;20070;-60
2022/04/24 01:12:16;;;;;;;53.22;33.80;;;;;;;10.26;100.00;94373.34;5126060;27;20062;-57
2022/04/24 01:14:44;;;;;;;50.38;32.60;;;;;;;10.30;100.00;94358.78;5121917;27;20083;-58
2022/04/24 01:17:12;;;;;;;52.97;32.63;;;;;;;10.26;100.00;94362.81;5120172;27;20086;-54
2022/04/24 01:19:42;;;;;;;50.60;31.35;;;;;;;10.31;100.00;94355.94;5119906;27;20067;-56
2022/04/24 01:22:12;;;;;;;41.42;24.38;;;;;;;10.14;100.00;94323.00;5121960;28;20070;-56
2022/04/24 01:24:40;;;;;;;50.73;32.63;;;;;;;10.52;100.00;94341.03;5121099;27;20069;-57
2022/04/24 01:27:09;;;;;;;51.83;33.05;;;;;;;10.36;100.00;94342.22;5120038;27;20520;-58
2022/04/24 01:29:37;;;;;;;48.70;30.85;;;;;;;10.37;100.00;94339.38;5120452;28;20094;-58
2022/04/24 01:32:07;;;;;;;49.72;31.02;;;;;;;10.22;100.00;94333.41;5119310;27;20486;-59
2022/04/24 01:34:35;;;;;;;54.20;32.53;;;;;;;10.34;100.00;94318.69;5118876;27;20062;-59
2022/04/24 01:37:04;;;;;;;53.33;32.08;;;;;;;10.27;100.00;94315.19;5118737;27;20071;-56
2022/04/24 01:39:34;;;;;;;56.05;38.75;;;;;;;10.10;100.00;94324.41;5116945;27;20457;-56
2022/04/24 01:42:03;;;;;;;54.70;34.95;;;;;;;10.18;100.00;94330.31;5117186;27;20097;-58
2022/04/24 01:44:31;;;;;;;51.15;32.30;;;;;;;10.22;100.00;94322.84;5120774;27;20062;-59
2022/04/24 01:46:59;;;;;;;48.25;31.10;;;;;;;10.21;100.00;94331.75;5124337;27;20071;-59
2022/04/24 01:49:28;;;;;;;53.22;33.55;;;;;;;10.40;100.00;94336.34;5119270;27;20507;-58
2022/04/24 01:51:56;;;;;;;53.40;34.65;;;;;;;10.28;100.00;94326.53;5121430;27;20063;-58
2022/04/24 01:54:24;;;;;;;52.70;33.95;;;;;;;10.42;100.00;94321.13;5121452;27;20059;-57
2022/04/24 01:56:54;;;;;;;49.42;32.60;;;;;;;10.16;100.00;94323.63;5121150;27;20087;-57
2022/04/24 01:59:22;;;;;;;50.72;31.27;;;;;;;10.30;100.00;94319.28;5121118;27;20086;-57
2022/04/24 02:01:51;;;;;;;51.13;32.53;;;;;;;10.26;100.00;94320.69;5120118;27;20051;-59
2022/04/24 02:04:22;;;;;;;50.08;31.42;;;;;;;10.22;100.00;94322.84;5120728;27;20062;-59
2022/04/24 02:06:51;;;;;;;52.28;36.15;;;;;;;10.30;100.00;94316.63;5123785;27;20074;-55
2022/04/24 02:09:19;;;;;;;48.50;32.30;;;;;;;10.26;100.00;94318.03;5127352;27;20067;-57
2022/04/24 02:11:47;;;;;;;46.00;29.48;;;;;;;10.03;100.00;94311.19;5122104;27;20132;-55
2022/04/24 02:14:21;;;;;;;49.67;33.75;;;;;;;10.33;100.00;94314.44;5126523;27;20456;-57
2022/04/24 02:16:50;;;;;;;49.92;31.40;;;;;;;10.11;100.00;94308.41;5105467;27;20050;-57
2022/04/24 02:19:18;;;;;;;51.35;31.17;;;;;;;10.28;100.00;94310.75;5103091;28;20074;-58
2022/04/24 02:21:48;;;;;;;52.55;33.88;;;;;;;10.35;100.00;94309.75;5102925;28;20071;-59
2022/04/24 02:24:17;;;;;;;50.08;31.48;;;;;;;10.23;100.00;94292.88;5107075;28;20055;-58
2022/04/24 02:26:45;;;;;;;43.50;27.70;;;;;;;10.16;100.00;94295.47;5089718;28;20594;-58
2022/04/24 02:29:13;;;;;;;48.80;31.50;;;;;;;10.41;100.00;94295.00;5125059;27;20070;-59
2022/04/24 02:31:43;;;;;;;51.70;33.72;;;;;;;10.24;100.00;94307.66;5121297;27;20055;-58
2022/04/24 02:34:12;;;;;;;47.50;30.65;;;;;;;10.32;100.00;94296.16;5123542;27;20067;-53
2022/04/24 02:36:40;;;;;;;52.42;34.97;;;;;;;10.05;100.00;94319.72;5122726;27;20062;-57
2022/04/24 02:39:08;;;;;;;49.70;31.77;;;;;;;10.43;100.00;94316.69;5126126;27;20075;-58
2022/04/24 02:41:37;;;;;;;50.88;32.83;;;;;;;10.43;100.00;94314.88;5121118;27;20067;-58
2022/04/24 02:44:05;;;;;;;51.38;32.88;;;;;;;10.13;100.00;94335.34;5126445;27;20077;-58
2022/04/24 02:46:34;;;;;;;48.20;31.80;;;;;;;10.52;100.00;94336.59;5108807;27;20035;-59
2022/04/24 02:49:04;;;;;;;49.42;30.75;;;;;;;10.39;100.00;94347.06;5103047;28;20074;-56
2022/04/24 02:51:32;;;;;;;47.15;33.10;;;;;;;10.15;100.00;94330.72;5105866;27;20059;-59
2022/04/24 02:54:01;;;;;;;48.65;32.42;;;;;;;10.24;100.00;94328.72;5105669;27;20593;-57
2022/04/24 02:56:29;;;;;;;48.90;31.60;;;;;;;10.27;100.00;94322.28;5097663;27;20488;-58
2022/04/24 02:58:57;;;;;;;50.83;33.42;;;;;;;10.35;100.00;94332.66;5121663;27;20063;-56
2022/04/24 03:01:25;;;;;;;48.65;32.33;;;;;;;10.44;100.00;94334.94;5126803;27;20054;-54
2022/04/24 03:03:54;;;;;;;46.30;31.38;;;;;;;10.44;100.00;94340.22;5117577;27;20067;-60
2022/04/24 03:06:24;;;;;;;47.72;31.67;;;;;;;10.42;100.00;94344.84;5102119;27;20071;-55
2022/04/24 03:08:52;;;;;;;48.10;32.23;;;;;;;10.52;100.00;94341.03;5106062;28;20159;-54
2022/04/24 03:11:20;;;;;;;44.53;30.70;;;;;;;10.40;100.00;94332.91;5126039;27;20280;-53
2022/04/24 03:13:48;;;;;;;46.15;31.00;;;;;;;10.41;100.00;94323.97;5126062;27;20350;-59
2022/04/24 03:16:17;;;;;;;49.70;31.85;;;;;;;10.35;100.00;94332.66;5122321;27;20054;-55
2022/04/24 03:18:45;;;;;;;46.30;30.52;;;;;;;10.53;100.00;94325.06;5124061;27;20078;-57
2022/04/24 03:21:13;;;;;;;47.72;31.05;;;;;;;10.42;100.00;94320.31;5117470;27;20085;-58
2022/04/24 03:23:43;;;;;;;45.67;31.33;;;;;;;10.34;100.00;94328.41;5123904;27;20094;-57
2022/04/24 03:26:15;;;;;;;45.72;31.75;;;;;;;10.62;100.00;94320.41;5122034;27;22414;-55
2022/04/24 03:28:44;;;;;;;47.50;31.08;;;;;;;10.58;100.00;94325.25;5123442;27;20417;-54
2022/04/24 03:31:13;;;;;;;45.63;30.98;;;;;;;10.44;100.00;94328.84;5120723;27;20068;-56
2022/04/24 03:33:41;;;;;;;45.45;31.75;;;;;;;10.62;100.00;94338.84;5125311;27;20074;-58
2022/04/24 03:36:09;;;;;;;47.67;30.92;;;;;;;10.72;100.00;94334.03;5125464;27;20079;-54
2022/04/24 03:38:38;;;;;;;47.20;31.27;;;;;;;10.77;100.00;94333.44;5120215;27;20076;-56
2022/04/24 03:41:08;;;;;;;45.17;31.25;;;;;;;11.02;100.00;94344.28;5121755;27;20067;-54
2022/04/24 03:43:36;;;;;;;46.17;31.38;;;;;;;10.96;100.00;94343.22;5121800;27;20051;-58
2022/04/24 03:46:05;;;;;;;43.00;30.63;;;;;;;10.92;100.00;94374.47;5124499;27;20073;-57
2022/04/24 03:48:34;;;;;;;46.33;31.75;;;;;;;10.88;100.00;94385.59;5123888;27;20552;-57
2022/04/24 03:51:02;;;;;;;49.75;32.58;;;;;;;11.03;100.00;94396.00;5120082;27;20070;-59
2022/04/24 03:53:31;;;;;;;45.17;30.92;;;;;;;10.69;100.00;94416.94;5122337;27;20089;-53
2022/04/24 03:55:59;;;;;;;48.03;31.60;;;;;;;10.57;100.00;94407.97;5124103;27;20071;-59
2022/04/24 03:58:29;;;;;;;45.72;31.38;;;;;;;10.68;100.00;94415.31;5121077;27;20073;-58
2022/04/24 04:00:57;;;;;;;48.47;31.92;;;;;;;10.97;100.00;94417.88;5120700;27;20071;-57
2022/04/24 04:03:26;;;;;;;46.55;31.77;;;;;;;10.83;100.00;94427.56;5121105;27;20461;-56
2022/04/24 04:05:55;;;;;;;47.05;31.05;;;;;;;10.88;100.00;94425.97;5119669;27;20093;-55
2022/04/24 04:08:23;;;;;;;46.50;30.95;;;;;;;11.11;100.00;94416.91;5117660;27;20090;-57
2022/04/24 04:10:51;;;;;;;44.75;30.40;;;;;;;10.52;100.00;94420.09;5120219;27;20481;-55
2022/04/24 04:13:19;;;;;;;46.33;31.27;;;;;;;10.72;100.00;94422.84;5125390;27;20071;-58
2022/04/24 04:15:49;;;;;;;47.28;31.35;;;;;;;10.63;100.00;94424.81;5121947;27;20062;-57
2022/04/24 04:18:18;;;;;;;46.15;32.03;;;;;;;10.62;100.00;94425.81;5123535;27;20055;-57
2022/04/24 04:20:46;;;;;;;48.42;32.08;;;;;;;10.53;100.00;94438.38;5119454;27;20074;-57
2022/04/24 04:23:14;;;;;;;45.67;31.13;;;;;;;10.77;100.00;94425.69;5121634;27;20070;-58
2022/04/24 04:25:43;;;;;;;48.67;32.13;;;;;;;10.65;100.00;94430.72;5118292;27;20417;-56
2022/04/24 04:28:11;;;;;;;47.15;32.72;;;;;;;10.61;100.00;94434.75;5120818;27;20070;-58
2022/04/24 04:30:39;;;;;;;49.92;32.88;;;;;;;10.55;100.00;94436.34;5118647;27;20266;-52
2022/04/24 04:33:09;;;;;;;47.15;33.15;;;;;;;10.72;100.00;94436.81;5121897;27;20090;-55
2022/04/24 04:35:38;;;;;;;45.45;31.02;;;;;;;10.82;100.00;94434.66;5120319;27;20078;-55
2022/04/24 04:38:06;;;;;;;46.45;30.65;;;;;;;10.47;100.00;94449.69;5123556;27;20058;-55
2022/04/24 04:40:35;;;;;;;46.50;31.95;;;;;;;10.49;100.00;94446.84;5124425;27;20035;-58
2022/04/24 04:43:03;;;;;;;52.38;34.22;;;;;;;10.60;100.00;94457.66;5120049;27;20066;-58
2022/04/24 04:45:31;;;;;;;51.72;32.35;;;;;;;10.50;100.00;94462.47;5118186;27;20067;-55
2022/04/24 04:48:00;;;;;;;49.20;32.50;;;;;;;10.67;100.00;94474.31;5114665;27;20079;-56
2022/04/24 04:50:29;;;;;;;48.47;31.75;;;;;;;10.54;100.00;94481.34;5121352;27;20173;-57
2022/04/24 04:52:58;;;;;;;48.83;32.15;;;;;;;10.68;100.00;94488.31;5118551;27;20552;-58
2022/04/24 04:55:27;;;;;;;47.17;31.65;;;;;;;10.77;100.00;94489.78;5123894;27;20070;-56
2022/04/24 04:57:56;;;;;;;47.50;32.20;;;;;;;11.11;100.00;94477.56;5122028;27;20046;-53
2022/04/24 05:00:25;;;;;;;47.00;31.92;;;;;;;10.87;100.00;94495.53;5120897;27;20070;-58
2022/04/24 05:02:53;;;;;;;49.15;31.20;;;;;;;10.96;100.00;94490.91;5120671;27;20102;-56
2022/04/24 05:05:21;;;;;;;47.40;32.00;;;;;;;10.99;100.00;94498.41;5120437;27;20075;-56
2022/04/24 05:07:52;;;;;;;48.60;31.48;;;;;;;11.02;100.00;94505.94;5122835;27;20074;-57
2022/04/24 05:10:20;;;;;;;47.88;32.70;;;;;;;10.65;100.00;94513.22;5122121;27;20116;-58
2022/04/24 05:12:49;;;;;;;45.75;31.45;;;;;;;10.83;100.00;94523.28;5117534;27;20089;-56
2022/04/24 05:15:19;;;;;;;46.47;31.58;;;;;;;10.82;100.00;94520.84;5119530;27;20062;-56
2022/04/24 05:17:47;;;;;;;48.05;32.13;;;;;;;10.73;100.00;94528.06;5121341;27;20086;-56
2022/04/24 05:20:16;;;;;;;45.35;31.60;;;;;;;10.89;100.00;94537.50;5122140;27;20066;-55
2022/04/24 05:22:44;;;;;;;47.83;31.92;;;;;;;11.14;100.00;94545.75;5119013;27;20458;-58
2022/04/24 05:25:14;;;;;;;48.97;33.80;;;;;;;11.08;100.00;94559.72;5122123;27;21003;-58
2022/04/24 05:27:44;;;;;;;49.45;33.03;;;;;;;10.88;100.00;94554.34;5120836;27;20064;-54
2022/04/24 05:30:13;;;;;;;46.72;31.40;;;;;;;11.11;100.00;94562.81;5122072;27;20522;-54
2022/04/24 05:32:42;;;;;;;53.85;35.38;;;;;;;10.81;100.00;94564.03;5120915;27;20079;-59
2022/04/24 05:35:11;;;;;;;51.35;33.63;;;;;;;11.06;100.00;94553.84;5118985;27;20071;-55
2022/04/24 05:37:40;;;;;;;51.30;32.50;;;;;;;10.81;100.00;94553.50;5118405;27;20528;-58
2022/04/24 05:40:09;;;;;;;44.65;29.42;;;;;;;10.67;100.00;94561.31;5123139;27;20074;-58
2022/04/24 05:42:46;;;;;;;53.42;35.28;;;;;;;11.05;100.00;94570.69;5125770;27;20063;-56
2022/04/24 05:45:18;;;;;;;49.50;33.90;;;;;;;11.15;100.00;94569.31;5125455;27;20063;-58
2022/04/24 05:47:46;;;;;;;50.50;33.63;;;;;;;11.34;100.00;94575.69;5124075;27;20051;-56
2022/04/24 05:50:15;;;;;;;53.42;35.28;;;;;;;11.29;100.00;94572.03;5126843;27;21660;-56
2022/04/24 05:52:44;;;;;;;52.55;33.70;;;;;;;11.22;100.00;94576.44;5123519;27;20062;-56
2022/04/24 05:55:12;;;;;;;56.60;35.67;;;;;;;11.19;100.00;94575.03;5127033;27;20082;-54
2022/04/24 05:57:40;;;;;;;55.63;34.72;;;;;;;11.07;100.00;94571.28;5121814;27;20070;-56
2022/04/24 06:00:12;;;;;;;51.40;32.20;;;;;;;11.07;100.00;94566.81;5109324;27;20086;-58
2022/04/24 06:02:41;;;;;;;49.88;32.40;;;;;;;10.89;100.00;94542.78;5122052;27;20521;-59
2022/04/24 06:05:11;;;;;;;50.80;29.90;;;;;;;10.85;100.00;94536.28;5125080;27;20067;-58
2022/04/24 06:07:40;;;;;;;44.30;27.13;;;;;;;10.74;100.00;94542.91;5124732;27;20059;-57
2022/04/24 06:10:10;;;;;;;46.22;30.17;;;;;;;10.71;100.00;94545.13;5125028;27;20071;-54
2022/04/24 06:12:46;;;;;;;49.90;30.03;;;;;;;10.93;100.00;94555.38;5124707;27;20276;-58
2022/04/24 06:15:16;;;;;;;44.45;30.38;;;;;;;11.11;100.00;94570.72;5124615;27;20461;-58
2022/04/24 06:17:46;;;;;;;51.50;32.22;;;;;;;11.41;100.00;94570.44;5123603;27;20075;-56
2022/04/24 06:20:15;;;;;;;50.72;33.13;;;;;;;11.08;100.00;94581.66;5125788;27;20067;-58
2022/04/24 06:22:44;;;;;;;48.33;33.42;;;;;;;11.58;100.00;94589.41;5123476;27;20047;-56
2022/04/24 06:25:17;;;;;;;49.28;33.95;;;;;;;11.65;100.00;94590.25;5124095;27;20608;-57
2022/04/24 06:27:45;;;;;;;54.05;34.63;;;;;;;11.81;100.00;94587.28;5121935;27;20063;-55
2022/04/24 06:30:15;;;;;;;50.17;34.30;;;;;;;12.14;100.00;94589.22;5125949;27;20532;-57
2022/04/24 06:32:44;;;;;;;49.22;33.25;;;;;;;12.07;100.00;94591.84;5123158;27;20087;-58
2022/04/24 06:35:14;;;;;;;51.28;33.15;;;;;;;12.00;100.00;94604.22;5122125;27;20062;-57
2022/04/24 06:37:43;;;;;;;48.92;33.80;;;;;;;11.84;100.00;94607.22;5120670;27;20074;-56
2022/04/24 06:40:14;;;;;;;45.38;30.15;;;;;;;12.21;100.00;94613.00;5125527;27;20062;-56
2022/04/24 06:42:49;;;;;;;44.47;30.83;;;;;;;11.82;100.00;94612.66;5122186;27;20067;-55
2022/04/24 06:45:25;;;;;;;39.70;27.20;;;;;;;12.07;100.00;94606.88;5127836;27;20059;-52
2022/04/24 06:47:54;;;;;;;43.30;27.35;;;;;;;12.13;100.00;94607.91;5122948;27;20066;-57
2022/04/24 06:50:23;;;;;;;36.67;23.77;;;;;;;12.03;100.00;94608.28;5124012;27;20637;-56
2022/04/24 06:52:59;;;;;;;36.08;24.73;;;;;;;12.09;100.00;94602.22;5121546;27;20540;-56
2022/04/24 06:55:28;;;;;;;36.20;23.40;;;;;;;12.08;100.00;94600.59;5114674;27;20035;-51
2022/04/24 06:57:57;;;;;;;34.08;23.40;;;;;;;11.81;100.00;94597.03;5108944;27;20477;-57
2022/04/24 07:00:28;;;;;;;33.92;23.80;;;;;;;12.06;100.00;94600.78;5107638;27;20059;-53
2022/04/24 07:03:18;;;;;;;34.80;23.33;;;;;;;12.03;100.00;94605.66;5107052;27;20067;-55
2022/04/24 07:05:47;;;;;;;31.85;20.88;;;;;;;12.11;100.00;94603.66;5104807;28;20595;-54
2022/04/24 07:08:15;;;;;;;32.78;22.23;;;;;;;12.49;100.00;94607.56;5106013;28;20661;-55
2022/04/24 07:10:43;;;;;;;29.10;19.38;;;;;;;12.48;100.00;94617.31;5105925;27;20066;-57
2022/04/24 07:13:12;;;;;;;29.70;20.63;;;;;;;12.59;100.00;94613.25;5110091;27;20541;-57
2022/04/24 07:15:41;;;;;;;31.98;22.42;;;;;;;13.12;100.00;94623.84;5123276;27;20063;-56
2022/04/24 07:18:10;;;;;;;29.57;21.80;;;;;;;13.12;100.00;94626.50;5101751;27;20087;-57
2022/04/24 07:20:39;;;;;;;32.20;21.60;;;;;;;13.35;100.00;94627.91;5104257;28;20497;-57
2022/04/24 07:23:08;;;;;;;30.02;20.42;;;;;;;13.51;100.00;94622.97;5105544;27;20537;-55
2022/04/24 07:25:40;;;;;;;27.27;19.65;;;;;;;13.75;100.00;94620.66;5105408;28;20552;-58
2022/04/24 07:28:09;;;;;;;28.38;19.40;;;;;;;13.69;100.00;94627.59;5102520;28;20075;-57
2022/04/24 07:30:37;;;;;;;26.55;18.23;;;;;;;13.64;100.00;94618.69;5101645;28;20074;-58
2022/04/24 07:33:07;;;;;;;25.40;16.65;;;;;;;13.48;100.00;94618.09;5106822;27;20063;-57
2022/04/24 07:35:37;;;;;;;28.10;18.55;;;;;;;13.93;100.00;94618.13;5105089;28;20067;-58
2022/04/24 07:38:05;;;;;;;25.40;18.33;;;;;;;14.06;100.00;94614.63;5091303;28;20055;-57
2022/04/24 07:40:35;;;;;;;23.52;17.10;;;;;;;14.37;100.00;94626.28;5107252;28;20063;-57
2022/04/24 07:43:05;;;;;;;20.33;14.43;;;;;;;14.12;100.00;94634.19;5105353;27;20112;-55
2022/04/24 07:45:35;;;;;;;21.80;15.48;;;;;;;14.27;100.00;94633.91;5106865;28;20074;-58
2022/04/24 07:48:05;;;;;;;23.88;16.92;;;;;;;14.55;100.00;94638.84;5106185;28;20097;-57
2022/04/24 07:50:36;;;;;;;20.65;15.07;;;;;;;14.56;100.00;94633.34;5103048;28;20063;-56
2022/04/24 07:53:06;;;;;;;18.85;13.10;;;;;;;14.62;100.00;94635.13;5101624;27;20067;-58
2022/04/24 07:55:35;;;;;;;23.17;16.38;;;;;;;14.19;100.00;94650.88;5101171;28;20043;-58
2022/04/24 07:58:03;;;;;;;20.00;14.63;;;;;;;14.92;100.00;94642.47;5104629;28;20060;-57
2022/04/24 08:00:33;;;;;;;20.42;15.63;;;;;;;15.43;100.00;94638.75;5103708;27;20059;-58
2022/04/24 08:03:03;;;;;;;20.73;15.40;;;;;;;15.42;100.00;94653.91;5098708;27;20512;-57
2022/04/24 08:05:32;;;;;;;;;;;;;;;14.99;100.00;94653.84;5106823;28;20078;-58
2022/04/24 08:08:04;;;;;;;19.98;14.07;;;;;;;15.06;100.00;94662.56;5094566;28;19978;-54
2022/04/24 08:10:34;;;;;;;18.02;12.73;;;;;;;15.57;100.00;94661.50;5103090;28;20488;-55
2022/04/24 08:13:04;;;;;;;16.67;12.75;;;;;;;15.29;100.00;94674.44;5108856;28;20060;-56
2022/04/24 08:15:32;;;;;;;18.35;14.43;;;;;;;15.34;100.00;94682.56;5106853;27;20063;-57
2022/04/24 08:18:01;;;;;;;14.00;9.95;;;;;;;15.67;100.00;94682.28;5103356;28;20191;-56
2022/04/24 08:20:30;;;;;;;15.90;13.52;;;;;;;15.60;100.00;94697.47;5099065;28;20560;-58
2022/04/24 08:23:01;;;;;;;18.52;14.63;;;;;;;15.43;100.00;94694.53;5102353;28;20071;-56
2022/04/24 08:25:34;;;;;;;16.23;12.75;;;;;;;15.60;100.00;94705.44;5101418;28;20481;-58
2022/04/24 08:28:06;;;;;;;17.95;13.98;;;;;;;15.11;100.00;94715.84;5111288;27;20047;-58
2022/04/24 08:30:36;;;;;;;16.05;12.27;;;;;;;14.56;100.00;94725.38;5120399;27;20066;-58
2022/04/24 08:33:04;;;;;;;17.52;13.60;;;;;;;14.44;100.00;94733.94;5116987;27;20575;-55
2022/04/24 08:35:32;;;;;;;19.42;13.52;;;;;;;14.53;100.00;94731.91;5103803;28;20091;-56
2022/04/24 08:38:01;;;;;;;17.38;13.70;;;;;;;14.36;100.00;94730.75;5099996;28;20506;-55
2022/04/24 08:40:31;;;;;;;17.08;12.93;;;;;;;14.33;100.00;94742.56;5103095;28;20074;-57
2022/04/24 08:43:00;;;;;;;17.05;12.77;;;;;;;13.96;100.00;94746.75;5115307;27;20066;-58
2022/04/24 08:45:30;;;;;;;16.65;12.73;;;;;;;13.75;100.00;94743.34;5129791;27;20680;-57
2022/04/24 08:47:59;;;;;;;19.92;14.10;;;;;;;13.92;100.00;94750.84;5128931;27;20085;-56
2022/04/24 08:50:29;;;;;;;18.70;14.48;;;;;;;13.92;100.00;94753.50;5127067;27;20095;-58
2022/04/24 08:52:57;;;;;;;17.05;13.18;;;;;;;14.13;100.00;94755.06;5108697;27;20518;-56
2022/04/24 08:55:27;;;;;;;17.15;13.50;;;;;;;13.57;100.00;94748.47;5116190;27;20074;-58
2022/04/24 08:57:57;;;;;;;15.98;12.48;;;;;;;13.80;100.00;94752.50;5106562;28;20071;-54
2022/04/24 09:00:27;;;;;;;15.98;12.50;;;;;;;13.73;100.00;94765.78;5108504;28;20055;-57
2022/04/24 09:02:58;;;;;;;16.25;11.50;;;;;;;13.72;100.00;94762.28;5101477;28;20086;-57
2022/04/24 09:05:28;;;;;;;15.30;12.30;;;;;;;13.51;100.00;94762.50;5098955;28;20474;-57
2022/04/24 09:08:06;;;;;;;12.70;9.88;;;;;;;13.85;100.00;94769.41;5098911;28;20070;-58
2022/04/24 09:10:56;;;;;;;13.60;10.73;;;;;;;13.71;100.00;94762.50;5101390;28;20142;-57
2022/04/24 09:14:14;;;;;;;13.70;10.48;;;;;;;13.90;100.00;94764.31;5101228;28;20094;-55
2022/04/24 09:16:26;;;;;;;15.30;11.10;;;;;;;13.82;100.00;94771.66;5108331;28;20059;-56
2022/04/24 09:18:54;;;;;;;12.32;9.38;;;;;;;13.70;100.00;94772.28;5108608;28;20066;-54
2022/04/24 09:21:22;;;;;;;12.73;10.20;;;;;;;13.89;100.00;94772.47;5108122;28;20059;-58
2022/04/24 09:23:50;;;;;;;11.95;9.65;;;;;;;13.77;100.00;94765.16;5096243;28;20076;-55
2022/04/24 09:26:24;;;;;;;13.80;10.40;;;;;;;14.02;100.00;94765.28;5098411;28;20331;-56
2022/04/24 09:29:15;;;;;;;13.45;9.82;;;;;;;14.02;100.00;94756.53;5119250;28;20568;-56
2022/04/24 09:31:47;;;;;;;11.48;9.38;;;;;;;14.19;100.00;94756.91;5128335;28;20070;-58
2022/04/24 09:34:17;;;;;;;11.85;8.60;;;;;;;14.18;100.00;94760.56;5116944;28;20055;-56
2022/04/24 09:36:46;;;;;;;11.43;8.63;;;;;;;14.12;100.00;94764.06;5103350;28;20070;-58
2022/04/24 09:39:15;;;;;;;10.18;8.73;;;;;;;14.48;100.00;94760.84;5099782;28;20056;-55
2022/04/24 09:41:43;;;;;;;9.40;7.63;;;;;;;14.10;100.00;94766.09;5097025;28;20083;-54
2022/04/24 09:44:13;;;;;;;10.52;8.27;;;;;;;14.76;100.00;94763.19;5107357;28;20121;-58
2022/04/24 09:46:43;;;;;;;10.98;7.57;;;;;;;14.57;100.00;94777.41;5104919;28;20070;-57
2022/04/24 09:49:12;;;;;;;10.98;8.65;;;;;;;14.40;100.00;94771.72;5100550;28;20137;-58
2022/04/24 09:51:43;;;;;;;9.27;8.00;;;;;;;15.23;100.00;94773.56;5098149;28;20063;-59
2022/04/24 09:54:12;;;;;;;9.02;7.78;;;;;;;14.84;100.00;94768.28;5108700;28;20058;-51
2022/04/24 09:56:41;;;;;;;8.95;7.60;;;;;;;14.95;100.00;94777.41;5099582;28;20075;-57
2022/04/24 09:59:09;;;;;;;8.18;7.30;;;;;;;15.10;100.00;94771.78;5102893;28;20063;-58
2022/04/24 10:01:38;;;;;;;9.50;8.48;;;;;;;15.04;100.00;94770.81;5100769;28;20074;-58
2022/04/24 10:04:08;;;;;;;9.90;8.00;;;;;;;15.14;100.00;94775.63;5114334;28;20063;-56
2022/04/24 10:06:37;;;;;;;8.80;7.68;;;;;;;14.95;100.00;94783.53;5113163;28;20063;-56
2022/04/24 10:09:07;;;;;;;9.27;7.97;;;;;;;14.62;100.00;94790.81;5107918;28;20469;-57
2022/04/24 10:11:36;;;;;;;10.90;8.75;;;;;;;14.57;100.00;94790.66;5108810;28;20092;-54
2022/04/24 10:14:07;;;;;;;10.60;8.77;;;;;;;15.60;100.00;94777.16;5118833;28;20073;-55
2022/04/24 10:17:06;;;;;;;10.38;7.70;;;;;;;15.50;100.00;94784.81;5107819;28;20071;-57
2022/04/24 10:19:46;;;;;;;7.55;6.55;;;;;;;15.59;100.00;94778.22;5064104;28;20071;-57
2022/04/24 10:22:23;;;;;;;8.23;6.55;;;;;;;15.56;100.00;94779.44;5107520;28;20074;-57
2022/04/24 10:24:59;;;;;;;7.90;6.82;;;;;;;15.42;100.00;94786.69;5107540;28;20059;-57
2022/04/24 10:27:37;;;;;;;8.80;7.05;;;;;;;15.54;100.00;94776.19;5109196;28;20529;-54
2022/04/24 10:30:08;;;;;;;8.85;7.38;;;;;;;16.16;100.00;94778.91;5111402;28;20087;-58
2022/04/24 10:32:36;;;;;;;9.90;8.10;;;;;;;16.08;100.00;94779.22;5115666;27;20072;-59
2022/04/24 10:35:17;;;;;;;7.43;6.53;;;;;;;16.27;100.00;94769.38;5105375;27;20075;-58
2022/04/24 10:37:47;;;;;;;6.93;5.57;;;;;;;15.73;100.00;94771.78;5105070;28;20462;-53
2022/04/24 10:40:16;;;;;;;;;;;;;;;15.91;100.00;94768.34;5105877;28;20466;-58
2022/04/24 10:42:44;;;;;;;6.88;5.70;;;;;;;16.13;100.00;94772.19;5110963;28;20420;-58
2022/04/24 10:45:14;;;;;;;6.32;4.85;;;;;;;15.71;100.00;94779.13;5111221;28;20086;-57
2022/04/24 10:47:55;;;;;;;5.00;4.15;;;;;;;15.71;100.00;94767.69;5119132;27;20120;-57
2022/04/24 10:50:25;;;;;;;8.45;5.00;;;;;;;16.13;100.00;94766.06;5103789;28;20379;-56
2022/04/24 10:52:56;;;;;;;6.15;5.18;;;;;;;16.23;100.00;94758.38;5101391;27;20601;-59
2022/04/24 10:55:26;;;;;;;6.70;4.80;;;;;;;16.19;100.00;94757.19;5108511;28;20074;-56
2022/04/24 10:57:57;;;;;;;6.20;4.60;;;;;;;16.01;100.00;94758.00;5107383;28;20038;-58
2022/04/24 11:00:31;;;;;;;5.35;4.35;;;;;;;16.36;100.00;94750.25;5115324;27;20059;-54
2022/04/24 11:03:13;;;;;;;5.13;3.85;;;;;;;16.14;100.00;94749.09;5119208;27;20645;-58
2022/04/24 11:05:44;;;;;;;4.05;3.33;;;;;;;16.27;100.00;94748.09;5125148;27;20090;-57
2022/04/24 11:08:18;;;;;;;4.03;3.38;;;;;;;16.06;100.00;94749.34;5104926;27;20070;-57
2022/04/24 11:10:48;;;;;;;3.58;3.08;;;;;;;16.04;100.00;94749.59;5116261;27;20055;-61
2022/04/24 11:13:19;;;;;;;3.85;3.15;;;;;;;15.74;100.00;94762.75;5125428;27;20093;-58
2022/04/24 11:15:48;;;;;;;4.05;3.42;;;;;;;15.84;100.00;94760.41;5115508;27;20468;-58
2022/04/24 11:18:24;;;;;;;3.03;2.65;;;;;;;15.77;100.00;94759.66;5124238;27;20450;-56
2022/04/24 11:20:58;;;;;;;2.50;2.20;;;;;;;16.29;100.00;94776.13;5111654;28;20075;-56
2022/04/24 11:23:28;;;;;;;2.53;2.33;;;;;;;16.35;100.00;94777.09;5127835;27;20462;-57